sensor_id;sensor_type;location;lat;lon;timestamp;P1;durP1;ratioP1;P2;durP2;ratioP2
63688;SDS011;54895;40.928;14.480;2023-02-24T00:01:59;98.60;;;58.35;;
63688;SDS011;54895;40.928;14.480;2023-02-24T00:04:33;101.80;;;63.22;;
63688;SDS011;54895;40.928;14.480;2023-02-24T00:07:03;96.25;;;60.55;;
63688;SDS011;54895;40.928;14.480;2023-02-24T00:09:30;90.15;;;56.42;;
63688;SDS011;54895;40.928;14.480;2023-02-24T00:11:59;79.35;;;49.70;;
63688;SDS011;54895;40.928;14.480;2023-02-24T00:14:28;86.90;;;55.08;;
63688;SDS011;54895;40.928;14.480;2023-02-24T00:16:59;94.57;;;58.00;;
63688;SDS011;54895;40.928;14.480;2023-02-24T00:19:27;94.70;;;58.20;;
63688;SDS011;54895;40.928;14.480;2023-02-24T00:21:57;91.57;;;56.95;;
63688;SDS011;54895;40.928;14.480;2023-02-24T00:24:25;93.20;;;58.47;;
63688;SDS011;54895;40.928;14.480;2023-02-24T00:26:58;95.37;;;61.23;;
63688;SDS011;54895;40.928;14.480;2023-02-24T00:29:26;94.43;;;58.92;;
63688;SDS011;54895;40.928;14.480;2023-02-24T00:31:55;108.78;;;64.82;;
63688;SDS011;54895;40.928;14.480;2023-02-24T00:34:26;103.32;;;64.75;;
63688;SDS011;54895;40.928;14.480;2023-02-24T00:36:58;95.38;;;59.88;;
63688;SDS011;54895;40.928;14.480;2023-02-24T00:39:25;94.75;;;57.65;;
63688;SDS011;54895;40.928;14.480;2023-02-24T00:41:58;79.43;;;51.50;;
63688;SDS011;54895;40.928;14.480;2023-02-24T00:44:33;92.40;;;56.67;;
63688;SDS011;54895;40.928;14.480;2023-02-24T00:47:05;89.95;;;55.67;;
63688;SDS011;54895;40.928;14.480;2023-02-24T00:49:33;95.68;;;58.10;;
63688;SDS011;54895;40.928;14.480;2023-02-24T00:52:02;99.00;;;59.05;;
63688;SDS011;54895;40.928;14.480;2023-02-24T00:54:36;90.38;;;57.13;;
63688;SDS011;54895;40.928;14.480;2023-02-24T00:57:02;90.80;;;57.70;;
63688;SDS011;54895;40.928;14.480;2023-02-24T00:59:29;90.72;;;59.08;;
63688;SDS011;54895;40.928;14.480;2023-02-24T01:01:55;101.80;;;59.45;;
63688;SDS011;54895;40.928;14.480;2023-02-24T01:04:22;90.32;;;54.55;;
63688;SDS011;54895;40.928;14.480;2023-02-24T01:06:49;88.22;;;54.90;;
63688;SDS011;54895;40.928;14.480;2023-02-24T01:09:18;94.00;;;58.58;;
63688;SDS011;54895;40.928;14.480;2023-02-24T01:11:46;92.18;;;54.72;;
63688;SDS011;54895;40.928;14.480;2023-02-24T01:14:33;84.57;;;51.50;;
63688;SDS011;54895;40.928;14.480;2023-02-24T01:17:00;85.50;;;51.15;;
63688;SDS011;54895;40.928;14.480;2023-02-24T01:19:29;85.47;;;49.90;;
63688;SDS011;54895;40.928;14.480;2023-02-24T01:22:00;86.70;;;52.42;;
63688;SDS011;54895;40.928;14.480;2023-02-24T01:24:30;87.50;;;53.25;;
63688;SDS011;54895;40.928;14.480;2023-02-24T01:26:59;75.43;;;48.65;;
63688;SDS011;54895;40.928;14.480;2023-02-24T01:29:27;81.05;;;49.92;;
63688;SDS011;54895;40.928;14.480;2023-02-24T01:31:54;80.57;;;49.13;;
63688;SDS011;54895;40.928;14.480;2023-02-24T01:34:27;77.53;;;48.75;;
63688;SDS011;54895;40.928;14.480;2023-02-24T01:36:56;80.80;;;49.90;;
63688;SDS011;54895;40.928;14.480;2023-02-24T01:39:26;78.70;;;50.40;;
63688;SDS011;54895;40.928;14.480;2023-02-24T01:41:53;79.93;;;50.47;;
63688;SDS011;54895;40.928;14.480;2023-02-24T01:46:51;82.60;;;51.05;;
63688;SDS011;54895;40.928;14.480;2023-02-24T01:52:00;82.70;;;50.63;;
63688;SDS011;54895;40.928;14.480;2023-02-24T01:54:34;81.60;;;53.63;;
63688;SDS011;54895;40.928;14.480;2023-02-24T01:57:08;90.60;;;57.80;;
63688;SDS011;54895;40.928;14.480;2023-02-24T01:59:36;98.05;;;58.58;;
63688;SDS011;54895;40.928;14.480;2023-02-24T02:02:04;94.53;;;59.33;;
63688;SDS011;54895;40.928;14.480;2023-02-24T02:07:15;74.30;;;44.75;;
63688;SDS011;54895;40.928;14.480;2023-02-24T02:09:44;73.35;;;43.35;;
63688;SDS011;54895;40.928;14.480;2023-02-24T02:12:13;68.10;;;41.40;;
63688;SDS011;54895;40.928;14.480;2023-02-24T02:14:41;68.72;;;40.70;;
63688;SDS011;54895;40.928;14.480;2023-02-24T02:17:35;61.80;;;40.58;;
63688;SDS011;54895;40.928;14.480;2023-02-24T02:20:27;67.85;;;39.85;;
63688;SDS011;54895;40.928;14.480;2023-02-24T02:25:54;68.28;;;41.30;;
63688;SDS011;54895;40.928;14.480;2023-02-24T02:36:32;57.53;;;34.97;;
63688;SDS011;54895;40.928;14.480;2023-02-24T02:42:31;59.97;;;33.92;;
63688;SDS011;54895;40.928;14.480;2023-02-24T02:48:01;53.83;;;33.38;;
63688;SDS011;54895;40.928;14.480;2023-02-24T02:53:02;62.53;;;35.40;;
63688;SDS011;54895;40.928;14.480;2023-02-24T02:55:44;50.47;;;31.85;;
63688;SDS011;54895;40.928;14.480;2023-02-24T02:58:14;76.45;;;35.95;;
63688;SDS011;54895;40.928;14.480;2023-02-24T03:00:55;71.18;;;34.60;;
63688;SDS011;54895;40.928;14.480;2023-02-24T03:03:31;74.00;;;33.05;;
63688;SDS011;54895;40.928;14.480;2023-02-24T03:06:12;60.50;;;30.90;;
63688;SDS011;54895;40.928;14.480;2023-02-24T03:08:50;51.65;;;29.75;;
63688;SDS011;54895;40.928;14.480;2023-02-24T03:11:23;55.95;;;30.58;;
63688;SDS011;54895;40.928;14.480;2023-02-24T03:13:50;54.08;;;31.42;;
63688;SDS011;54895;40.928;14.480;2023-02-24T03:16:21;57.25;;;33.35;;
63688;SDS011;54895;40.928;14.480;2023-02-24T03:18:58;60.85;;;33.28;;
63688;SDS011;54895;40.928;14.480;2023-02-24T03:21:30;68.68;;;40.97;;
63688;SDS011;54895;40.928;14.480;2023-02-24T03:24:01;61.45;;;34.58;;
63688;SDS011;54895;40.928;14.480;2023-02-24T03:29:18;70.97;;;41.72;;
63688;SDS011;54895;40.928;14.480;2023-02-24T03:31:50;67.75;;;38.17;;
63688;SDS011;54895;40.928;14.480;2023-02-24T03:37:12;61.63;;;36.92;;
63688;SDS011;54895;40.928;14.480;2023-02-24T03:39:39;64.13;;;37.92;;
63688;SDS011;54895;40.928;14.480;2023-02-24T03:42:15;70.70;;;38.83;;
63688;SDS011;54895;40.928;14.480;2023-02-24T03:44:44;69.47;;;38.83;;
63688;SDS011;54895;40.928;14.480;2023-02-24T03:47:12;66.57;;;39.03;;
63688;SDS011;54895;40.928;14.480;2023-02-24T03:49:42;72.90;;;40.05;;
63688;SDS011;54895;40.928;14.480;2023-02-24T03:55:16;62.47;;;37.00;;
63688;SDS011;54895;40.928;14.480;2023-02-24T04:01:09;64.70;;;38.08;;
63688;SDS011;54895;40.928;14.480;2023-02-24T04:04:00;54.40;;;33.78;;
63688;SDS011;54895;40.928;14.480;2023-02-24T04:06:51;59.35;;;34.03;;
63688;SDS011;54895;40.928;14.480;2023-02-24T04:09:28;58.47;;;35.72;;
63688;SDS011;54895;40.928;14.480;2023-02-24T04:14:46;65.78;;;35.35;;
63688;SDS011;54895;40.928;14.480;2023-02-24T04:17:18;68.53;;;36.22;;
63688;SDS011;54895;40.928;14.480;2023-02-24T04:19:53;63.55;;;34.30;;
63688;SDS011;54895;40.928;14.480;2023-02-24T04:22:23;60.42;;;34.13;;
63688;SDS011;54895;40.928;14.480;2023-02-24T04:24:56;55.03;;;33.28;;
63688;SDS011;54895;40.928;14.480;2023-02-24T04:27:55;56.17;;;34.88;;
63688;SDS011;54895;40.928;14.480;2023-02-24T04:30:41;54.15;;;32.85;;
63688;SDS011;54895;40.928;14.480;2023-02-24T04:33:11;53.30;;;32.20;;
63688;SDS011;54895;40.928;14.480;2023-02-24T04:35:38;58.45;;;33.35;;
63688;SDS011;54895;40.928;14.480;2023-02-24T04:38:06;59.42;;;33.35;;
63688;SDS011;54895;40.928;14.480;2023-02-24T04:40:32;58.10;;;34.17;;
63688;SDS011;54895;40.928;14.480;2023-02-24T04:42:58;54.17;;;34.22;;
63688;SDS011;54895;40.928;14.480;2023-02-24T04:45:26;53.42;;;33.65;;
63688;SDS011;54895;40.928;14.480;2023-02-24T04:47:55;55.78;;;34.20;;
63688;SDS011;54895;40.928;14.480;2023-02-24T04:50:28;64.80;;;38.83;;
63688;SDS011;54895;40.928;14.480;2023-02-24T04:53:03;66.10;;;39.97;;
63688;SDS011;54895;40.928;14.480;2023-02-24T04:55:33;55.28;;;33.67;;
63688;SDS011;54895;40.928;14.480;2023-02-24T04:58:05;57.75;;;36.22;;
63688;SDS011;54895;40.928;14.480;2023-02-24T05:00:36;67.07;;;40.25;;
63688;SDS011;54895;40.928;14.480;2023-02-24T05:03:05;72.53;;;43.97;;
63688;SDS011;54895;40.928;14.480;2023-02-24T05:05:33;62.70;;;37.25;;
63688;SDS011;54895;40.928;14.480;2023-02-24T05:08:03;63.47;;;38.05;;
63688;SDS011;54895;40.928;14.480;2023-02-24T05:10:36;66.65;;;39.70;;
63688;SDS011;54895;40.928;14.480;2023-02-24T05:13:16;75.13;;;43.17;;
63688;SDS011;54895;40.928;14.480;2023-02-24T05:15:47;62.97;;;37.55;;
63688;SDS011;54895;40.928;14.480;2023-02-24T05:18:14;62.28;;;37.90;;
63688;SDS011;54895;40.928;14.480;2023-02-24T05:20:44;61.65;;;38.25;;
63688;SDS011;54895;40.928;14.480;2023-02-24T05:23:32;63.78;;;36.03;;
63688;SDS011;54895;40.928;14.480;2023-02-24T05:26:02;60.03;;;36.55;;
63688;SDS011;54895;40.928;14.480;2023-02-24T05:28:38;65.25;;;37.47;;
63688;SDS011;54895;40.928;14.480;2023-02-24T05:31:16;71.63;;;40.83;;
63688;SDS011;54895;40.928;14.480;2023-02-24T05:33:49;73.60;;;41.58;;
63688;SDS011;54895;40.928;14.480;2023-02-24T05:36:23;74.82;;;42.20;;
63688;SDS011;54895;40.928;14.480;2023-02-24T05:38:51;71.15;;;38.58;;
63688;SDS011;54895;40.928;14.480;2023-02-24T05:41:32;62.83;;;35.30;;
63688;SDS011;54895;40.928;14.480;2023-02-24T05:44:06;73.90;;;38.85;;
63688;SDS011;54895;40.928;14.480;2023-02-24T05:46:36;59.90;;;36.40;;
63688;SDS011;54895;40.928;14.480;2023-02-24T05:49:05;53.75;;;33.15;;
63688;SDS011;54895;40.928;14.480;2023-02-24T05:51:37;57.88;;;33.80;;
63688;SDS011;54895;40.928;14.480;2023-02-24T05:54:04;55.92;;;33.65;;
63688;SDS011;54895;40.928;14.480;2023-02-24T05:56:33;57.55;;;34.63;;
63688;SDS011;54895;40.928;14.480;2023-02-24T05:59:02;60.08;;;35.20;;
63688;SDS011;54895;40.928;14.480;2023-02-24T06:01:32;59.20;;;34.97;;
63688;SDS011;54895;40.928;14.480;2023-02-24T06:04:04;59.88;;;36.53;;
63688;SDS011;54895;40.928;14.480;2023-02-24T06:06:35;55.75;;;32.55;;
63688;SDS011;54895;40.928;14.480;2023-02-24T06:09:04;51.22;;;29.55;;
63688;SDS011;54895;40.928;14.480;2023-02-24T06:11:37;54.85;;;33.42;;
63688;SDS011;54895;40.928;14.480;2023-02-24T06:14:10;54.05;;;33.40;;
63688;SDS011;54895;40.928;14.480;2023-02-24T06:16:38;47.97;;;30.63;;
63688;SDS011;54895;40.928;14.480;2023-02-24T06:19:06;53.97;;;32.05;;
63688;SDS011;54895;40.928;14.480;2023-02-24T06:21:35;49.67;;;29.80;;
63688;SDS011;54895;40.928;14.480;2023-02-24T06:24:08;53.58;;;27.80;;
63688;SDS011;54895;40.928;14.480;2023-02-24T06:26:40;48.10;;;28.10;;
63688;SDS011;54895;40.928;14.480;2023-02-24T06:29:15;42.97;;;27.02;;
63688;SDS011;54895;40.928;14.480;2023-02-24T06:31:42;48.35;;;28.02;;
63688;SDS011;54895;40.928;14.480;2023-02-24T06:34:10;49.28;;;27.73;;
63688;SDS011;54895;40.928;14.480;2023-02-24T06:36:38;41.75;;;27.35;;
63688;SDS011;54895;40.928;14.480;2023-02-24T06:39:05;50.60;;;30.90;;
63688;SDS011;54895;40.928;14.480;2023-02-24T06:41:38;51.45;;;32.08;;
63688;SDS011;54895;40.928;14.480;2023-02-24T06:44:05;55.53;;;31.52;;
63688;SDS011;54895;40.928;14.480;2023-02-24T06:46:31;49.53;;;29.20;;
63688;SDS011;54895;40.928;14.480;2023-02-24T06:48:58;59.22;;;32.03;;
63688;SDS011;54895;40.928;14.480;2023-02-24T06:51:25;57.70;;;30.75;;
63688;SDS011;54895;40.928;14.480;2023-02-24T06:53:55;57.05;;;30.40;;
63688;SDS011;54895;40.928;14.480;2023-02-24T06:56:24;50.60;;;30.48;;
63688;SDS011;54895;40.928;14.480;2023-02-24T06:58:55;56.40;;;30.58;;
63688;SDS011;54895;40.928;14.480;2023-02-24T07:02:02;55.33;;;30.25;;
63688;SDS011;54895;40.928;14.480;2023-02-24T07:04:29;50.03;;;28.77;;
63688;SDS011;54895;40.928;14.480;2023-02-24T07:06:56;51.97;;;29.45;;
63688;SDS011;54895;40.928;14.480;2023-02-24T07:09:28;51.70;;;29.85;;
63688;SDS011;54895;40.928;14.480;2023-02-24T07:11:55;52.10;;;29.05;;
63688;SDS011;54895;40.928;14.480;2023-02-24T07:14:23;50.05;;;30.38;;
63688;SDS011;54895;40.928;14.480;2023-02-24T07:16:51;60.38;;;31.25;;
63688;SDS011;54895;40.928;14.480;2023-02-24T07:19:24;51.60;;;31.77;;
63688;SDS011;54895;40.928;14.480;2023-02-24T07:21:56;58.45;;;32.42;;
63688;SDS011;54895;40.928;14.480;2023-02-24T07:24:28;61.75;;;34.63;;
63688;SDS011;54895;40.928;14.480;2023-02-24T07:27:01;66.90;;;37.00;;
63688;SDS011;54895;40.928;14.480;2023-02-24T07:29:29;59.33;;;34.83;;
63688;SDS011;54895;40.928;14.480;2023-02-24T07:32:00;51.60;;;32.70;;
63688;SDS011;54895;40.928;14.480;2023-02-24T07:34:30;48.17;;;30.65;;
63688;SDS011;54895;40.928;14.480;2023-02-24T07:36:58;50.92;;;31.15;;
63688;SDS011;54895;40.928;14.480;2023-02-24T07:39:31;51.90;;;31.45;;
63688;SDS011;54895;40.928;14.480;2023-02-24T07:41:57;52.95;;;32.83;;
63688;SDS011;54895;40.928;14.480;2023-02-24T07:44:24;55.10;;;31.33;;
63688;SDS011;54895;40.928;14.480;2023-02-24T07:46:51;48.30;;;31.30;;
63688;SDS011;54895;40.928;14.480;2023-02-24T07:49:21;53.65;;;32.53;;
63688;SDS011;54895;40.928;14.480;2023-02-24T07:51:52;54.30;;;31.13;;
63688;SDS011;54895;40.928;14.480;2023-02-24T07:54:22;52.40;;;31.67;;
63688;SDS011;54895;40.928;14.480;2023-02-24T07:56:52;48.85;;;31.38;;
63688;SDS011;54895;40.928;14.480;2023-02-24T07:59:25;55.83;;;32.20;;
63688;SDS011;54895;40.928;14.480;2023-02-24T08:01:57;51.28;;;31.30;;
63688;SDS011;54895;40.928;14.480;2023-02-24T08:04:26;55.50;;;32.38;;
63688;SDS011;54895;40.928;14.480;2023-02-24T08:06:55;57.97;;;34.17;;
63688;SDS011;54895;40.928;14.480;2023-02-24T08:09:25;53.25;;;32.40;;
63688;SDS011;54895;40.928;14.480;2023-02-24T08:12:14;52.40;;;33.83;;
63688;SDS011;54895;40.928;14.480;2023-02-24T08:14:46;53.88;;;34.10;;
63688;SDS011;54895;40.928;14.480;2023-02-24T08:17:21;53.03;;;33.45;;
63688;SDS011;54895;40.928;14.480;2023-02-24T08:19:51;51.30;;;32.10;;
63688;SDS011;54895;40.928;14.480;2023-02-24T08:22:40;58.28;;;33.65;;
63688;SDS011;54895;40.928;14.480;2023-02-24T08:25:17;57.38;;;31.75;;
63688;SDS011;54895;40.928;14.480;2023-02-24T08:27:48;54.13;;;31.08;;
63688;SDS011;54895;40.928;14.480;2023-02-24T08:30:21;56.58;;;32.42;;
63688;SDS011;54895;40.928;14.480;2023-02-24T08:32:50;48.15;;;31.80;;
63688;SDS011;54895;40.928;14.480;2023-02-24T08:35:26;50.10;;;30.80;;
63688;SDS011;54895;40.928;14.480;2023-02-24T08:38:16;45.67;;;29.08;;
63688;SDS011;54895;40.928;14.480;2023-02-24T08:40:48;51.75;;;32.60;;
63688;SDS011;54895;40.928;14.480;2023-02-24T08:43:24;50.33;;;32.33;;
63688;SDS011;54895;40.928;14.480;2023-02-24T08:45:53;50.55;;;33.55;;
63688;SDS011;54895;40.928;14.480;2023-02-24T08:48:27;50.97;;;30.70;;
63688;SDS011;54895;40.928;14.480;2023-02-24T08:53:32;47.90;;;29.15;;
63688;SDS011;54895;40.928;14.480;2023-02-24T08:55:59;42.58;;;27.23;;
63688;SDS011;54895;40.928;14.480;2023-02-24T08:58:35;45.28;;;26.42;;
63688;SDS011;54895;40.928;14.480;2023-02-24T09:01:08;37.13;;;23.50;;
63688;SDS011;54895;40.928;14.480;2023-02-24T09:03:44;40.00;;;24.85;;
63688;SDS011;54895;40.928;14.480;2023-02-24T09:06:13;42.88;;;26.83;;
63688;SDS011;54895;40.928;14.480;2023-02-24T09:08:43;34.17;;;22.73;;
63688;SDS011;54895;40.928;14.480;2023-02-24T09:11:13;31.88;;;19.08;;
63688;SDS011;54895;40.928;14.480;2023-02-24T09:13:44;33.55;;;21.00;;
63688;SDS011;54895;40.928;14.480;2023-02-24T09:16:18;33.53;;;21.85;;
63688;SDS011;54895;40.928;14.480;2023-02-24T09:18:45;39.05;;;21.83;;
63688;SDS011;54895;40.928;14.480;2023-02-24T09:21:33;31.67;;;19.20;;
63688;SDS011;54895;40.928;14.480;2023-02-24T09:24:30;29.05;;;19.10;;
63688;SDS011;54895;40.928;14.480;2023-02-24T09:26:57;28.65;;;18.85;;
63688;SDS011;54895;40.928;14.480;2023-02-24T09:29:27;32.03;;;21.23;;
63688;SDS011;54895;40.928;14.480;2023-02-24T09:32:00;32.28;;;20.02;;
63688;SDS011;54895;40.928;14.480;2023-02-24T09:34:37;31.65;;;20.25;;
63688;SDS011;54895;40.928;14.480;2023-02-24T09:37:10;33.20;;;21.08;;
63688;SDS011;54895;40.928;14.480;2023-02-24T09:39:53;32.90;;;21.83;;
63688;SDS011;54895;40.928;14.480;2023-02-24T09:42:23;32.60;;;21.73;;
63688;SDS011;54895;40.928;14.480;2023-02-24T09:48:31;31.85;;;21.65;;
63688;SDS011;54895;40.928;14.480;2023-02-24T09:51:09;34.42;;;21.55;;
63688;SDS011;54895;40.928;14.480;2023-02-24T09:53:47;33.70;;;21.30;;
63688;SDS011;54895;40.928;14.480;2023-02-24T09:56:33;31.02;;;20.42;;
63688;SDS011;54895;40.928;14.480;2023-02-24T09:59:11;31.73;;;20.15;;
63688;SDS011;54895;40.928;14.480;2023-02-24T10:01:47;28.45;;;19.05;;
63688;SDS011;54895;40.928;14.480;2023-02-24T10:07:47;27.77;;;19.02;;
63688;SDS011;54895;40.928;14.480;2023-02-24T10:10:27;32.35;;;20.27;;
63688;SDS011;54895;40.928;14.480;2023-02-24T10:13:05;31.48;;;19.80;;
63688;SDS011;54895;40.928;14.480;2023-02-24T10:15:43;27.55;;;17.13;;
63688;SDS011;54895;40.928;14.480;2023-02-24T10:18:37;37.65;;;20.42;;
63688;SDS011;54895;40.928;14.480;2023-02-24T10:21:20;28.90;;;19.02;;
63688;SDS011;54895;40.928;14.480;2023-02-24T10:24:13;25.80;;;17.80;;
63688;SDS011;54895;40.928;14.480;2023-02-24T10:32:13;29.83;;;19.90;;
63688;SDS011;54895;40.928;14.480;2023-02-24T10:34:49;30.38;;;18.80;;
63688;SDS011;54895;40.928;14.480;2023-02-24T10:37:17;35.70;;;19.63;;
63688;SDS011;54895;40.928;14.480;2023-02-24T10:39:48;27.35;;;17.88;;
63688;SDS011;54895;40.928;14.480;2023-02-24T10:42:25;23.70;;;15.98;;
63688;SDS011;54895;40.928;14.480;2023-02-24T10:48:49;25.48;;;16.35;;
63688;SDS011;54895;40.928;14.480;2023-02-24T10:51:20;25.48;;;15.30;;
63688;SDS011;54895;40.928;14.480;2023-02-24T10:54:05;24.52;;;16.42;;
63688;SDS011;54895;40.928;14.480;2023-02-24T10:56:47;28.08;;;16.00;;
63688;SDS011;54895;40.928;14.480;2023-02-24T10:59:43;28.17;;;15.88;;
63688;SDS011;54895;40.928;14.480;2023-02-24T11:02:52;22.27;;;12.40;;
63688;SDS011;54895;40.928;14.480;2023-02-24T11:05:41;22.73;;;15.50;;
63688;SDS011;54895;40.928;14.480;2023-02-24T11:08:33;22.13;;;13.65;;
63688;SDS011;54895;40.928;14.480;2023-02-24T11:11:14;24.45;;;15.63;;
63688;SDS011;54895;40.928;14.480;2023-02-24T11:13:51;26.60;;;14.25;;
63688;SDS011;54895;40.928;14.480;2023-02-24T11:16:42;22.15;;;15.48;;
63688;SDS011;54895;40.928;14.480;2023-02-24T11:19:30;20.92;;;14.40;;
63688;SDS011;54895;40.928;14.480;2023-02-24T11:21:59;22.88;;;14.00;;
63688;SDS011;54895;40.928;14.480;2023-02-24T11:24:27;25.75;;;15.25;;
63688;SDS011;54895;40.928;14.480;2023-02-24T11:26:55;26.75;;;14.57;;
63688;SDS011;54895;40.928;14.480;2023-02-24T11:48:40;23.00;;;15.52;;
63688;SDS011;54895;40.928;14.480;2023-02-24T11:53:56;27.23;;;14.48;;
63688;SDS011;54895;40.928;14.480;2023-02-24T11:56:35;22.45;;;14.35;;
63688;SDS011;54895;40.928;14.480;2023-02-24T12:05:02;23.95;;;14.43;;
63688;SDS011;54895;40.928;14.480;2023-02-24T12:07:38;20.43;;;14.20;;
63688;SDS011;54895;40.928;14.480;2023-02-24T12:10:15;22.65;;;14.90;;
63688;SDS011;54895;40.928;14.480;2023-02-24T12:18:20;22.08;;;14.40;;
63688;SDS011;54895;40.928;14.480;2023-02-24T12:23:38;19.05;;;13.35;;
63688;SDS011;54895;40.928;14.480;2023-02-24T12:34:14;21.50;;;13.70;;
63688;SDS011;54895;40.928;14.480;2023-02-24T12:53:22;24.10;;;14.63;;
63688;SDS011;54895;40.928;14.480;2023-02-24T12:58:37;22.80;;;15.57;;
63688;SDS011;54895;40.928;14.480;2023-02-24T13:01:15;22.10;;;14.80;;
63688;SDS011;54895;40.928;14.480;2023-02-24T13:04:05;26.15;;;15.30;;
63688;SDS011;54895;40.928;14.480;2023-02-24T13:06:46;21.33;;;14.10;;
63688;SDS011;54895;40.928;14.480;2023-02-24T13:09:20;23.02;;;15.70;;
63688;SDS011;54895;40.928;14.480;2023-02-24T13:14:36;24.05;;;16.02;;
63688;SDS011;54895;40.928;14.480;2023-02-24T13:19:38;24.33;;;15.30;;
63688;SDS011;54895;40.928;14.480;2023-02-24T13:24:42;25.70;;;16.65;;
63688;SDS011;54895;40.928;14.480;2023-02-24T13:27:28;27.33;;;16.35;;
63688;SDS011;54895;40.928;14.480;2023-02-24T13:29:58;25.15;;;16.45;;
63688;SDS011;54895;40.928;14.480;2023-02-24T13:32:33;24.17;;;16.95;;
63688;SDS011;54895;40.928;14.480;2023-02-24T13:35:48;25.25;;;17.42;;
63688;SDS011;54895;40.928;14.480;2023-02-24T13:37:51;27.58;;;17.65;;
63688;SDS011;54895;40.928;14.480;2023-02-24T13:50:22;23.40;;;14.48;;
63688;SDS011;54895;40.928;14.480;2023-02-24T13:53:08;25.08;;;16.45;;
63688;SDS011;54895;40.928;14.480;2023-02-24T13:56:27;26.25;;;16.08;;
63688;SDS011;54895;40.928;14.480;2023-02-24T14:02:11;20.60;;;13.88;;
63688;SDS011;54895;40.928;14.480;2023-02-24T14:04:52;19.55;;;12.25;;
63688;SDS011;54895;40.928;14.480;2023-02-24T14:07:22;20.92;;;12.48;;
63688;SDS011;54895;40.928;14.480;2023-02-24T14:09:51;19.33;;;11.52;;
63688;SDS011;54895;40.928;14.480;2023-02-24T14:12:23;18.77;;;11.35;;
63688;SDS011;54895;40.928;14.480;2023-02-24T14:14:55;24.10;;;11.98;;
63688;SDS011;54895;40.928;14.480;2023-02-24T14:17:24;21.15;;;11.80;;
63688;SDS011;54895;40.928;14.480;2023-02-24T14:22:50;12.30;;;6.15;;
63688;SDS011;54895;40.928;14.480;2023-02-24T14:25:18;10.20;;;6.05;;
63688;SDS011;54895;40.928;14.480;2023-02-24T14:27:50;11.70;;;5.72;;
63688;SDS011;54895;40.928;14.480;2023-02-24T14:30:26;8.25;;;4.68;;
63688;SDS011;54895;40.928;14.480;2023-02-24T14:33:07;8.27;;;4.53;;
63688;SDS011;54895;40.928;14.480;2023-02-24T14:35:48;8.30;;;4.80;;
63688;SDS011;54895;40.928;14.480;2023-02-24T14:38:28;10.52;;;4.30;;
63688;SDS011;54895;40.928;14.480;2023-02-24T14:41:18;10.80;;;4.85;;
63688;SDS011;54895;40.928;14.480;2023-02-24T14:43:55;11.73;;;4.43;;
63688;SDS011;54895;40.928;14.480;2023-02-24T14:46:24;8.50;;;4.38;;
63688;SDS011;54895;40.928;14.480;2023-02-24T14:48:52;11.98;;;4.68;;
63688;SDS011;54895;40.928;14.480;2023-02-24T14:51:24;7.70;;;4.80;;
63688;SDS011;54895;40.928;14.480;2023-02-24T14:54:11;9.43;;;5.07;;
63688;SDS011;54895;40.928;14.480;2023-02-24T14:56:46;9.10;;;5.10;;
63688;SDS011;54895;40.928;14.480;2023-02-24T14:59:15;10.95;;;4.90;;
63688;SDS011;54895;40.928;14.480;2023-02-24T15:02:13;8.32;;;4.28;;
63688;SDS011;54895;40.928;14.480;2023-02-24T15:04:44;9.57;;;5.05;;
63688;SDS011;54895;40.928;14.480;2023-02-24T15:07:22;6.75;;;4.07;;
63688;SDS011;54895;40.928;14.480;2023-02-24T15:09:51;10.07;;;3.88;;
63688;SDS011;54895;40.928;14.480;2023-02-24T15:15:27;7.88;;;3.28;;
63688;SDS011;54895;40.928;14.480;2023-02-24T15:17:57;6.00;;;3.58;;
63688;SDS011;54895;40.928;14.480;2023-02-24T15:20:33;8.23;;;4.03;;
63688;SDS011;54895;40.928;14.480;2023-02-24T15:23:04;9.57;;;4.32;;
63688;SDS011;54895;40.928;14.480;2023-02-24T15:25:42;6.75;;;3.70;;
63688;SDS011;54895;40.928;14.480;2023-02-24T15:28:26;5.47;;;3.00;;
63688;SDS011;54895;40.928;14.480;2023-02-24T15:33:51;10.02;;;4.05;;
63688;SDS011;54895;40.928;14.480;2023-02-24T15:36:23;7.47;;;4.47;;
63688;SDS011;54895;40.928;14.480;2023-02-24T15:39:00;12.48;;;4.50;;
63688;SDS011;54895;40.928;14.480;2023-02-24T15:41:38;14.25;;;4.53;;
63688;SDS011;54895;40.928;14.480;2023-02-24T15:44:19;11.30;;;5.13;;
63688;SDS011;54895;40.928;14.480;2023-02-24T15:47:11;7.55;;;5.32;;
63688;SDS011;54895;40.928;14.480;2023-02-24T15:49:47;8.82;;;5.93;;
63688;SDS011;54895;40.928;14.480;2023-02-24T15:52:16;11.52;;;6.25;;
63688;SDS011;54895;40.928;14.480;2023-02-24T15:54:48;14.07;;;6.18;;
63688;SDS011;54895;40.928;14.480;2023-02-24T15:57:16;10.57;;;5.60;;
63688;SDS011;54895;40.928;14.480;2023-02-24T15:59:43;16.08;;;6.28;;
63688;SDS011;54895;40.928;14.480;2023-02-24T16:02:14;13.35;;;5.70;;
63688;SDS011;54895;40.928;14.480;2023-02-24T16:04:45;12.48;;;6.22;;
63688;SDS011;54895;40.928;14.480;2023-02-24T16:07:23;9.90;;;5.88;;
63688;SDS011;54895;40.928;14.480;2023-02-24T16:09:55;18.15;;;6.68;;
63688;SDS011;54895;40.928;14.480;2023-02-24T16:12:28;18.02;;;6.53;;
63688;SDS011;54895;40.928;14.480;2023-02-24T16:14:58;10.82;;;5.85;;
63688;SDS011;54895;40.928;14.480;2023-02-24T16:17:31;10.27;;;6.43;;
63688;SDS011;54895;40.928;14.480;2023-02-24T16:20:00;11.00;;;5.95;;
63688;SDS011;54895;40.928;14.480;2023-02-24T16:22:28;11.45;;;6.13;;
63688;SDS011;54895;40.928;14.480;2023-02-24T16:24:55;10.93;;;6.00;;
63688;SDS011;54895;40.928;14.480;2023-02-24T16:27:22;11.05;;;5.80;;
63688;SDS011;54895;40.928;14.480;2023-02-24T16:29:51;134.57;;;46.35;;
63688;SDS011;54895;40.928;14.480;2023-02-24T16:32:18;19.55;;;12.07;;
63688;SDS011;54895;40.928;14.480;2023-02-24T16:34:48;16.65;;;8.60;;
63688;SDS011;54895;40.928;14.480;2023-02-24T16:37:25;13.05;;;8.23;;
63688;SDS011;54895;40.928;14.480;2023-02-24T16:39:57;81.18;;;36.00;;
63688;SDS011;54895;40.928;14.480;2023-02-24T16:42:24;60.95;;;28.38;;
63688;SDS011;54895;40.928;14.480;2023-02-24T16:44:51;13.73;;;7.47;;
63688;SDS011;54895;40.928;14.480;2023-02-24T16:47:19;14.40;;;7.22;;
63688;SDS011;54895;40.928;14.480;2023-02-24T16:49:49;12.52;;;7.03;;
63688;SDS011;54895;40.928;14.480;2023-02-24T16:52:20;17.98;;;8.05;;
63688;SDS011;54895;40.928;14.480;2023-02-24T16:54:48;19.90;;;9.10;;
63688;SDS011;54895;40.928;14.480;2023-02-24T16:57:15;149.80;;;76.10;;
63688;SDS011;54895;40.928;14.480;2023-02-24T16:59:42;46.85;;;25.50;;
63688;SDS011;54895;40.928;14.480;2023-02-24T17:02:16;34.72;;;18.15;;
63688;SDS011;54895;40.928;14.480;2023-02-24T17:04:47;15.35;;;7.82;;
63688;SDS011;54895;40.928;14.480;2023-02-24T17:07:13;15.75;;;7.93;;
63688;SDS011;54895;40.928;14.480;2023-02-24T17:09:41;12.90;;;7.55;;
63688;SDS011;54895;40.928;14.480;2023-02-24T17:12:09;13.70;;;7.35;;
63688;SDS011;54895;40.928;14.480;2023-02-24T17:14:39;16.38;;;7.85;;
63688;SDS011;54895;40.928;14.480;2023-02-24T17:17:06;15.57;;;7.82;;
63688;SDS011;54895;40.928;14.480;2023-02-24T17:19:32;11.48;;;7.88;;
63688;SDS011;54895;40.928;14.480;2023-02-24T17:21:59;15.55;;;8.52;;